createdAt,value
2019-05-20T00:00:13.740Z,0.00
2019-05-20T00:01:13.774Z,0.00
2019-05-20T00:02:24.496Z,0.00
2019-05-20T00:03:14.757Z,0.00
2019-05-20T00:04:13.712Z,0.00
2019-05-20T00:05:13.693Z,0.00
2019-05-20T00:06:13.701Z,0.00
2019-05-20T00:07:13.664Z,0.00
2019-05-20T00:08:13.657Z,0.00
2019-05-20T00:09:13.683Z,0.00
2019-05-20T00:10:13.634Z,0.00
2019-05-20T00:11:13.643Z,0.00
2019-05-20T00:12:13.607Z,0.00
2019-05-20T00:13:13.651Z,0.00
2019-05-20T00:14:13.585Z,0.00
2019-05-20T00:15:13.580Z,0.00
2019-05-20T00:16:13.565Z,0.00
2019-05-20T00:17:13.572Z,0.00
2019-05-20T00:18:13.586Z,0.00
2019-05-20T00:19:13.531Z,0.00
2019-05-20T00:20:13.530Z,0.00
2019-05-20T00:21:13.508Z,0.00
2019-05-20T00:22:13.495Z,0.00
2019-05-20T00:23:13.550Z,0.00
2019-05-20T00:24:13.516Z,0.00
2019-05-20T00:25:13.463Z,0.00
2019-05-20T00:26:13.497Z,0.00
2019-05-20T00:27:13.465Z,0.00
2019-05-20T00:28:13.477Z,0.00
2019-05-20T00:29:13.428Z,0.00
2019-05-20T00:30:13.417Z,0.00
2019-05-20T00:31:13.406Z,0.00
2019-05-20T00:32:13.397Z,0.00
2019-05-20T00:33:13.380Z,0.00
2019-05-20T00:34:13.403Z,0.00
2019-05-20T00:35:13.367Z,0.00
2019-05-20T00:36:13.338Z,0.00
2019-05-20T00:37:13.426Z,0.00
2019-05-20T00:38:13.318Z,0.00
2019-05-20T00:39:13.309Z,0.00
2019-05-20T00:40:13.297Z,0.00
2019-05-20T00:41:13.298Z,0.00
2019-05-20T00:42:13.270Z,0.00
2019-05-20T00:43:13.299Z,0.00
2019-05-20T00:44:13.251Z,0.00
2019-05-20T00:45:13.241Z,0.00
2019-05-20T00:46:13.270Z,0.00
2019-05-20T00:47:13.236Z,0.00
2019-05-20T00:48:13.213Z,0.00
2019-05-20T00:49:13.221Z,0.00
2019-05-20T00:50:13.197Z,0.00
2019-05-20T00:51:13.174Z,0.00
2019-05-20T00:52:13.244Z,0.00
2019-05-20T00:53:13.159Z,0.00
2019-05-20T00:54:13.139Z,0.00
2019-05-20T00:55:13.135Z,0.00
2019-05-20T00:56:13.115Z,0.00
2019-05-20T00:57:13.153Z,0.00
2019-05-20T00:58:13.116Z,0.00
2019-05-20T00:59:13.091Z,0.00
2019-05-20T01:00:13.080Z,0.00
2019-05-20T01:01:13.103Z,0.00
2019-05-20T01:02:13.091Z,0.00
2019-05-20T01:03:13.037Z,0.00
2019-05-20T01:04:13.026Z,0.00
2019-05-20T01:05:13.021Z,0.00
2019-05-20T01:06:13.003Z,0.00
2019-05-20T01:07:12.991Z,0.00
2019-05-20T01:08:13.017Z,0.00
2019-05-20T01:09:12.973Z,0.00
2019-05-20T01:10:12.966Z,0.00
2019-05-20T01:11:13.000Z,0.00
2019-05-20T01:12:12.934Z,0.00
2019-05-20T01:13:12.926Z,0.00
2019-05-20T01:14:12.915Z,0.00
2019-05-20T01:15:12.907Z,0.00
2019-05-20T01:16:12.939Z,0.00
2019-05-20T01:17:12.878Z,0.00
2019-05-20T01:18:12.870Z,0.00
2019-05-20T01:19:12.857Z,0.00
2019-05-20T01:20:12.895Z,0.00
2019-05-20T01:21:12.841Z,0.00
2019-05-20T01:22:12.834Z,0.00
2019-05-20T01:23:12.852Z,0.00
2019-05-20T01:24:12.798Z,0.00
2019-05-20T01:25:12.788Z,0.00
2019-05-20T01:26:12.783Z,0.00
2019-05-20T01:27:12.812Z,0.00
2019-05-20T01:28:12.755Z,0.00
2019-05-20T01:29:12.762Z,0.00
2019-05-20T01:30:12.728Z,0.00
2019-05-20T01:31:12.727Z,0.00
2019-05-20T01:32:12.719Z,0.00
2019-05-20T01:33:14.418Z,0.00
2019-05-20T01:34:12.684Z,0.00
2019-05-20T01:35:12.691Z,0.00
2019-05-20T01:36:12.676Z,0.00
2019-05-20T01:37:12.662Z,0.00
2019-05-20T01:38:12.684Z,0.00
2019-05-20T01:39:12.631Z,0.00
2019-05-20T01:40:12.637Z,0.00
2019-05-20T01:41:12.613Z,0.00
2019-05-20T01:42:12.605Z,0.00
2019-05-20T01:43:12.631Z,0.00
2019-05-20T01:44:12.575Z,0.00
2019-05-20T01:45:12.607Z,0.00
2019-05-20T01:46:12.557Z,0.00
2019-05-20T01:47:12.543Z,0.00
2019-05-20T01:48:12.569Z,0.00
2019-05-20T01:49:12.536Z,0.00
2019-05-20T01:50:12.544Z,0.00
2019-05-20T01:51:12.497Z,0.00
2019-05-20T01:52:12.482Z,0.00
2019-05-20T01:53:12.478Z,0.00
2019-05-20T01:54:12.508Z,0.00
2019-05-20T01:55:12.458Z,0.00
2019-05-20T01:56:12.457Z,0.00
2019-05-20T01:57:12.441Z,0.00
2019-05-20T01:58:12.430Z,0.00
2019-05-20T01:59:12.403Z,0.00
2019-05-20T02:00:12.435Z,0.00
2019-05-20T02:01:12.386Z,0.00
2019-05-20T02:02:12.371Z,0.00
2019-05-20T02:03:12.365Z,0.00
2019-05-20T02:04:12.389Z,0.00
2019-05-20T02:05:12.337Z,0.00
2019-05-20T02:06:12.325Z,0.00
2019-05-20T02:07:12.357Z,0.00
2019-05-20T02:08:12.310Z,0.00
2019-05-20T02:09:12.293Z,0.00
2019-05-20T02:10:12.327Z,0.00
2019-05-20T02:11:12.270Z,0.00
2019-05-20T02:12:12.260Z,0.00
2019-05-20T02:13:12.245Z,0.00
2019-05-20T02:14:12.247Z,0.00
2019-05-20T02:15:12.277Z,0.00
2019-05-20T02:16:12.212Z,0.00
2019-05-20T02:17:12.204Z,0.00
2019-05-20T02:18:12.190Z,0.00
2019-05-20T02:19:12.200Z,0.00
2019-05-20T02:20:12.166Z,0.00
2019-05-20T02:21:12.207Z,0.00
2019-05-20T02:22:12.201Z,0.00
2019-05-20T02:23:12.132Z,0.00
2019-05-20T02:24:12.130Z,0.00
2019-05-20T02:25:12.114Z,0.00
2019-05-20T02:26:12.170Z,0.00
2019-05-20T02:27:12.129Z,0.00
2019-05-20T02:28:12.076Z,0.00
2019-05-20T02:29:12.110Z,0.00
2019-05-20T02:30:12.077Z,0.00
2019-05-20T02:31:12.044Z,0.00
2019-05-20T02:32:12.037Z,0.00
2019-05-20T02:33:12.019Z,0.00
2019-05-20T02:34:12.025Z,0.00
2019-05-20T02:35:12.050Z,0.00
2019-05-20T02:36:11.985Z,0.00
2019-05-20T02:37:11.975Z,0.00
2019-05-20T02:38:11.963Z,0.00
2019-05-20T02:39:11.961Z,0.00
2019-05-20T02:40:11.989Z,0.00
2019-05-20T02:41:11.939Z,0.00
2019-05-20T02:42:11.915Z,0.00
2019-05-20T02:43:11.908Z,0.00
2019-05-20T02:44:11.948Z,0.00
2019-05-20T02:45:11.882Z,0.00
2019-05-20T02:46:11.875Z,0.00
2019-05-20T02:47:11.912Z,0.00
2019-05-20T02:48:11.892Z,0.00
2019-05-20T02:49:11.881Z,0.00
2019-05-20T02:50:11.826Z,0.00
2019-05-20T02:51:11.823Z,0.00
2019-05-20T02:52:11.806Z,0.00
2019-05-20T02:53:11.839Z,0.00
2019-05-20T02:54:11.787Z,0.00
2019-05-20T02:55:11.782Z,0.00
2019-05-20T02:56:11.800Z,0.00
2019-05-20T02:57:11.754Z,0.00
2019-05-20T02:58:11.740Z,0.00
2019-05-20T02:59:11.767Z,0.00
2019-05-20T03:00:11.720Z,0.00
2019-05-20T03:01:11.762Z,0.00
2019-05-20T03:02:12.024Z,0.00
2019-05-20T03:03:11.682Z,0.00
2019-05-20T03:04:13.081Z,0.00
2019-05-20T03:05:11.659Z,0.00
2019-05-20T03:06:11.645Z,0.00
2019-05-20T03:07:11.691Z,0.00
2019-05-20T03:08:11.633Z,0.00
2019-05-20T03:09:12.479Z,0.00
2019-05-20T03:10:11.611Z,0.00
2019-05-20T03:11:11.590Z,0.00
2019-05-20T03:12:11.583Z,0.00
2019-05-20T03:13:11.570Z,0.00
2019-05-20T03:14:11.567Z,0.00
2019-05-20T03:15:11.597Z,4.00
2019-05-20T03:16:15.452Z,4.00
2019-05-20T03:17:11.525Z,4.00
2019-05-20T03:18:11.521Z,0.00
2019-05-20T03:19:11.549Z,4.00
2019-05-20T03:20:11.492Z,4.00
2019-05-20T03:21:11.480Z,4.00
2019-05-20T03:22:11.473Z,4.00
2019-05-20T03:23:11.457Z,8.00
2019-05-20T03:24:11.488Z,4.00
2019-05-20T03:25:11.459Z,4.00
2019-05-20T03:26:11.439Z,8.00
2019-05-20T03:27:11.413Z,8.00
2019-05-20T03:28:11.403Z,8.00
2019-05-20T03:29:11.435Z,8.00
2019-05-20T03:30:11.386Z,8.00
2019-05-20T03:31:11.438Z,12.00
2019-05-20T03:32:11.372Z,12.00
2019-05-20T03:33:11.395Z,12.00
2019-05-20T03:34:38.787Z,12.00
2019-05-20T03:35:12.329Z,12.00
2019-05-20T03:36:11.363Z,16.00
2019-05-20T03:37:11.299Z,16.00
2019-05-20T03:38:11.283Z,16.00
2019-05-20T03:39:11.281Z,20.00
2019-05-20T03:40:11.283Z,20.00
2019-05-20T03:41:11.264Z,24.00
2019-05-20T03:42:11.291Z,28.00
2019-05-20T03:43:11.230Z,32.00
2019-05-20T03:44:11.224Z,32.00
2019-05-20T03:45:11.221Z,32.00
2019-05-20T03:46:11.242Z,36.00
2019-05-20T03:47:11.194Z,36.00
2019-05-20T03:48:11.172Z,40.00
2019-05-20T03:49:11.174Z,40.00
2019-05-20T03:50:11.153Z,44.00
2019-05-20T03:51:11.181Z,44.00
2019-05-20T03:52:11.185Z,44.00
2019-05-20T03:53:11.168Z,52.00
2019-05-20T03:54:11.157Z,52.00
2019-05-20T03:55:11.148Z,56.00
2019-05-20T03:56:11.088Z,60.00
2019-05-20T03:57:11.075Z,64.00
2019-05-20T03:58:13.620Z,68.00
2019-05-20T03:59:11.051Z,72.00
2019-05-20T04:00:11.046Z,76.00
2019-05-20T04:01:11.115Z,84.00
2019-05-20T04:02:11.019Z,92.00
2019-05-20T04:03:11.009Z,92.00
2019-05-20T04:04:11.003Z,108.00
2019-05-20T04:05:11.042Z,116.00
2019-05-20T04:06:11.016Z,128.00
2019-05-20T04:07:11.001Z,144.00
2019-05-20T04:08:10.953Z,168.00
2019-05-20T04:09:10.943Z,160.00
2019-05-20T04:10:10.925Z,156.00
2019-05-20T04:11:10.916Z,156.00
2019-05-20T04:12:10.950Z,176.00
2019-05-20T04:13:10.892Z,176.00
2019-05-20T04:14:10.884Z,180.00
2019-05-20T04:15:10.874Z,172.00
2019-05-20T04:16:10.920Z,160.00
2019-05-20T04:17:10.889Z,144.00
2019-05-20T04:18:10.840Z,140.00
2019-05-20T04:19:10.828Z,152.00
2019-05-20T04:20:10.873Z,176.00
2019-05-20T04:21:10.802Z,212.00
2019-05-20T04:22:10.788Z,208.00
2019-05-20T04:23:10.829Z,204.00
2019-05-20T04:24:10.786Z,220.00
2019-05-20T04:25:10.774Z,236.00
2019-05-20T04:26:10.757Z,260.00
2019-05-20T04:27:10.911Z,276.00
2019-05-20T04:28:10.724Z,304.00
2019-05-20T04:29:10.758Z,324.00
2019-05-20T04:30:10.700Z,348.00
2019-05-20T04:31:10.728Z,380.00
2019-05-20T04:32:10.678Z,392.00
2019-05-20T04:33:10.710Z,408.00
2019-05-20T04:34:10.653Z,404.00
2019-05-20T04:35:22.187Z,412.00
2019-05-20T04:36:11.641Z,424.00
2019-05-20T04:37:10.667Z,432.00
2019-05-20T04:38:10.627Z,440.00
2019-05-20T04:39:10.603Z,452.00
2019-05-20T04:40:10.587Z,456.00
2019-05-20T04:41:10.618Z,476.00
2019-05-20T04:42:10.570Z,476.00
2019-05-20T04:43:10.553Z,476.00
2019-05-20T04:44:11.219Z,444.00
2019-05-20T04:45:10.560Z,436.00
2019-05-20T04:46:10.523Z,460.00
2019-05-20T04:47:10.511Z,492.00
2019-05-20T04:48:13.725Z,524.00
2019-05-20T04:49:10.525Z,536.00
2019-05-20T04:50:10.482Z,660.00
2019-05-20T04:51:10.511Z,700.00
2019-05-20T04:52:10.461Z,748.00
2019-05-20T04:53:10.448Z,808.00
2019-05-20T04:54:10.436Z,868.00
2019-05-20T04:55:10.421Z,884.00
2019-05-20T04:56:10.462Z,936.00
2019-05-20T04:57:10.407Z,952.00
2019-05-20T04:58:10.430Z,992.00
2019-05-20T04:59:10.382Z,972.00
2019-05-20T05:00:10.397Z,964.00
2019-05-20T05:01:10.371Z,912.00
2019-05-20T05:02:10.646Z,852.00
2019-05-20T05:03:10.337Z,872.00
2019-05-20T05:04:10.323Z,928.00
2019-05-20T05:05:10.326Z,952.00
2019-05-20T05:06:10.354Z,988.00
2019-05-20T05:07:10.282Z,980.00
2019-05-20T05:08:10.325Z,952.00
2019-05-20T05:09:10.284Z,940.00
2019-05-20T05:10:10.261Z,936.00
2019-05-20T05:11:10.302Z,920.00
2019-05-20T05:12:10.245Z,868.00
2019-05-20T05:13:10.264Z,852.00
2019-05-20T05:14:10.233Z,828.00
2019-05-20T05:15:10.230Z,796.00
2019-05-20T05:16:10.188Z,752.00
2019-05-20T05:17:10.213Z,856.00
2019-05-20T05:18:10.181Z,880.00
2019-05-20T05:19:10.797Z,916.00
2019-05-20T05:20:17.601Z,876.00
2019-05-20T05:21:11.129Z,916.00
2019-05-20T05:22:10.133Z,920.00
2019-05-20T05:23:10.117Z,956.00
2019-05-20T05:24:10.156Z,980.00
2019-05-20T05:25:10.089Z,1068.00
2019-05-20T05:26:10.075Z,1172.00
2019-05-20T05:27:10.064Z,1332.00
2019-05-20T05:28:10.064Z,1448.00
2019-05-20T05:29:10.041Z,1508.00
2019-05-20T05:30:10.083Z,1532.00
2019-05-20T05:31:10.033Z,1484.00
2019-05-20T05:32:10.002Z,1588.00
2019-05-20T05:33:10.071Z,1748.00
2019-05-20T05:34:10.015Z,1812.00
2019-05-20T05:35:10.227Z,1760.00
2019-05-20T05:36:10.058Z,1764.00
2019-05-20T05:37:09.951Z,1744.00
2019-05-20T05:38:09.976Z,1944.00
2019-05-20T05:39:10.705Z,1824.00
2019-05-20T05:40:10.086Z,1884.00
2019-05-20T05:41:09.902Z,2024.00
2019-05-20T05:42:09.903Z,2184.00
2019-05-20T05:43:09.939Z,2264.00
2019-05-20T05:44:09.881Z,2252.00
2019-05-20T05:45:09.892Z,2264.00
2019-05-20T05:46:09.900Z,2304.00
2019-05-20T05:47:09.842Z,2328.00
2019-05-20T05:48:09.881Z,2360.00
2019-05-20T05:49:09.881Z,2380.00
2019-05-20T05:50:09.891Z,2360.00
2019-05-20T05:51:09.858Z,2256.00
2019-05-20T05:52:09.955Z,2208.00
2019-05-20T05:53:09.971Z,2172.00
2019-05-20T05:54:09.759Z,2144.00
2019-05-20T05:55:09.779Z,2092.00
2019-05-20T05:56:09.775Z,2084.00
2019-05-20T05:57:09.721Z,2096.00
2019-05-20T05:58:09.738Z,2020.00
2019-05-20T05:59:09.809Z,1900.00
2019-05-20T06:00:09.702Z,2000.00
2019-05-20T06:01:09.718Z,2280.00
2019-05-20T06:02:09.681Z,2420.00
2019-05-20T06:03:09.680Z,2488.00
2019-05-20T06:04:09.692Z,2444.00
2019-05-20T06:05:09.638Z,2312.00
2019-05-20T06:06:12.719Z,2156.00
2019-05-20T06:07:09.635Z,2052.00
2019-05-20T06:08:09.613Z,2092.00
2019-05-20T06:09:09.660Z,2068.00
2019-05-20T06:10:18.312Z,2088.00
2019-05-20T06:11:09.579Z,2020.00
2019-05-20T06:12:09.564Z,2048.00
2019-05-20T06:13:09.560Z,2060.00
2019-05-20T06:14:09.727Z,1964.00
2019-05-20T06:15:09.582Z,1884.00
2019-05-20T06:16:09.517Z,2100.00
2019-05-20T06:17:09.554Z,2060.00
2019-05-20T06:18:09.537Z,2064.00
2019-05-20T06:19:09.479Z,2168.00
2019-05-20T06:20:09.473Z,2244.00
2019-05-20T06:21:09.509Z,2304.00
2019-05-20T06:22:09.548Z,2532.00
2019-05-20T06:23:09.441Z,2588.00
2019-05-20T06:24:09.570Z,2684.00
2019-05-20T06:25:09.507Z,2568.00
2019-05-20T06:26:09.627Z,2432.00
2019-05-20T06:27:09.748Z,2344.00
2019-05-20T06:28:09.411Z,2324.00
2019-05-20T06:29:09.404Z,2524.00
2019-05-20T06:30:09.356Z,2416.00
2019-05-20T06:31:09.367Z,2260.00
2019-05-20T06:32:09.334Z,2024.00
2019-05-20T06:33:09.377Z,1836.00
2019-05-20T06:34:09.347Z,1844.00
2019-05-20T06:35:09.370Z,1688.00
2019-05-20T06:36:09.314Z,1508.00
2019-05-20T06:37:09.281Z,1428.00
2019-05-20T06:38:09.273Z,1368.00
2019-05-20T06:39:09.307Z,1380.00
2019-05-20T06:40:09.250Z,1520.00
2019-05-20T06:41:09.261Z,1532.00
2019-05-20T06:42:09.222Z,1484.00
2019-05-20T06:43:09.257Z,1496.00
2019-05-20T06:44:09.219Z,1648.00
2019-05-20T06:45:11.104Z,1640.00
2019-05-20T06:46:09.404Z,1692.00
2019-05-20T06:47:09.241Z,1848.00
2019-05-20T06:48:09.168Z,1852.00
2019-05-20T06:49:09.347Z,1668.00
2019-05-20T06:50:09.223Z,1644.00
2019-05-20T06:51:09.125Z,1720.00
2019-05-20T06:52:09.191Z,1780.00
2019-05-20T06:53:09.126Z,1892.00
2019-05-20T06:54:09.107Z,2032.00
2019-05-20T06:55:09.144Z,2140.00
2019-05-20T06:56:09.096Z,2320.00
2019-05-20T06:57:09.088Z,2320.00
2019-05-20T06:58:09.046Z,2156.00
2019-05-20T06:59:09.072Z,2140.00
2019-05-20T07:00:09.022Z,2168.00
2019-05-20T07:01:09.055Z,2144.00
2019-05-20T07:02:09.040Z,2032.00
2019-05-20T07:03:08.986Z,1976.00
2019-05-20T07:04:08.973Z,1912.00
2019-05-20T07:05:09.000Z,1868.00
2019-05-20T07:06:09.178Z,1872.00
2019-05-20T07:07:20.377Z,1900.00
2019-05-20T07:08:10.048Z,1880.00
2019-05-20T07:09:08.963Z,1800.00
2019-05-20T07:10:08.979Z,1640.00
2019-05-20T07:11:08.937Z,1656.00
2019-05-20T07:12:10.129Z,1816.00
2019-05-20T07:13:09.213Z,1920.00
2019-05-20T07:14:08.861Z,1992.00
2019-05-20T07:15:09.195Z,2116.00
2019-05-20T07:16:08.870Z,1936.00
2019-05-20T07:17:09.134Z,1720.00
2019-05-20T07:18:08.931Z,1716.00
2019-05-20T07:19:08.916Z,1736.00
2019-05-20T07:20:08.799Z,1836.00
2019-05-20T07:21:08.919Z,1796.00
2019-05-20T07:22:08.820Z,1728.00
2019-05-20T07:23:09.625Z,1684.00
2019-05-20T07:24:08.759Z,1712.00
2019-05-20T07:25:08.869Z,1696.00
2019-05-20T07:26:08.767Z,1724.00
2019-05-20T07:27:08.796Z,1768.00
2019-05-20T07:28:08.759Z,1876.00
2019-05-20T07:29:08.817Z,1944.00
2019-05-20T07:30:08.692Z,1980.00
2019-05-20T07:31:08.690Z,2060.00
2019-05-20T07:32:08.703Z,2148.00
2019-05-20T07:33:08.715Z,2204.00
2019-05-20T07:34:08.704Z,2260.00
2019-05-20T07:35:08.636Z,2244.00
2019-05-20T07:36:10.172Z,2152.00
2019-05-20T07:37:08.624Z,2036.00
2019-05-20T07:38:08.660Z,1960.00
2019-05-20T07:39:08.585Z,1968.00
2019-05-20T07:40:08.579Z,1968.00
2019-05-20T07:41:08.621Z,2004.00
2019-05-20T07:42:08.553Z,2048.00
2019-05-20T07:43:08.591Z,2148.00
2019-05-20T07:44:08.540Z,2232.00
2019-05-20T07:45:08.562Z,2216.00
2019-05-20T07:46:08.571Z,2240.00
2019-05-20T07:47:10.898Z,2352.00
2019-05-20T07:48:08.490Z,2396.00
2019-05-20T07:49:08.562Z,2504.00
2019-05-20T07:50:08.456Z,2672.00
2019-05-20T07:51:08.472Z,2932.00
2019-05-20T07:52:08.478Z,3228.00
2019-05-20T07:53:08.491Z,3236.00
2019-05-20T07:54:08.516Z,3048.00
2019-05-20T07:55:09.134Z,2932.00
2019-05-20T07:56:08.407Z,2980.00
2019-05-20T07:57:08.547Z,2976.00
2019-05-20T07:58:08.435Z,2912.00
2019-05-20T07:59:08.734Z,2928.00
2019-05-20T08:00:08.458Z,2800.00
2019-05-20T08:01:08.472Z,2744.00
2019-05-20T08:02:08.487Z,2744.00
2019-05-20T08:03:08.377Z,2784.00
2019-05-20T08:04:08.507Z,2736.00
2019-05-20T08:05:08.376Z,2696.00
2019-05-20T08:06:08.335Z,2668.00
2019-05-20T08:07:26.838Z,2548.00
2019-05-20T08:08:09.267Z,2484.00
2019-05-20T08:09:08.442Z,2456.00
2019-05-20T08:10:08.314Z,2444.00
2019-05-20T08:11:08.318Z,2448.00
2019-05-20T08:12:08.293Z,2620.00
2019-05-20T08:13:08.456Z,2588.00
2019-05-20T08:14:08.389Z,2640.00
2019-05-20T08:15:08.995Z,2820.00
2019-05-20T08:16:08.198Z,2976.00
2019-05-20T08:17:08.208Z,2836.00
2019-05-20T08:18:08.149Z,2744.00
2019-05-20T08:19:08.158Z,2764.00
2019-05-20T08:20:08.321Z,2812.00
2019-05-20T08:21:08.333Z,2900.00
2019-05-20T08:22:08.103Z,2924.00
2019-05-20T08:23:08.124Z,2884.00
2019-05-20T08:24:08.141Z,2904.00
2019-05-20T08:25:08.121Z,2988.00
2019-05-20T08:26:08.099Z,3128.00
2019-05-20T08:27:08.149Z,3256.00
2019-05-20T08:28:08.036Z,3340.00
2019-05-20T08:29:08.034Z,3484.00
2019-05-20T08:30:08.090Z,3428.00
2019-05-20T08:31:08.002Z,3432.00
2019-05-20T08:32:08.051Z,3216.00
2019-05-20T08:33:08.003Z,3184.00
2019-05-20T08:34:07.976Z,3128.00
2019-05-20T08:35:08.137Z,3024.00
2019-05-20T08:36:07.984Z,3096.00
2019-05-20T08:37:08.002Z,3052.00
2019-05-20T08:38:07.934Z,3100.00
2019-05-20T08:39:07.943Z,3368.00
2019-05-20T08:40:07.944Z,3432.00
2019-05-20T08:41:07.974Z,3580.00
2019-05-20T08:42:07.965Z,3500.00
2019-05-20T08:43:07.977Z,3432.00
2019-05-20T08:44:07.911Z,3424.00
2019-05-20T08:45:07.887Z,3408.00
2019-05-20T08:46:07.866Z,3380.00
2019-05-20T08:47:08.195Z,3616.00
2019-05-20T08:48:08.646Z,3792.00
2019-05-20T08:49:11.109Z,4024.00
2019-05-20T08:50:12.870Z,3836.00
2019-05-20T08:51:08.859Z,3736.00
2019-05-20T08:52:07.797Z,3684.00
2019-05-20T08:53:07.994Z,3580.00
2019-05-20T08:54:08.280Z,3496.00
2019-05-20T08:55:07.920Z,3400.00
2019-05-20T08:56:07.852Z,3408.00
2019-05-20T08:57:07.939Z,3324.00
2019-05-20T08:58:08.732Z,3256.00
2019-05-20T08:59:08.039Z,3212.00
2019-05-20T09:00:08.203Z,3292.00
2019-05-20T09:01:09.110Z,3328.00
2019-05-20T09:02:07.659Z,3296.00
2019-05-20T09:03:07.662Z,3268.00
2019-05-20T09:04:07.972Z,3312.00
2019-05-20T09:05:08.038Z,3368.00
2019-05-20T09:06:07.927Z,3308.00
2019-05-20T09:07:07.614Z,3296.00
2019-05-20T09:08:07.632Z,3316.00
2019-05-20T09:09:11.794Z,3332.00
2019-05-20T09:10:07.653Z,3216.00
2019-05-20T09:11:07.577Z,3148.00
2019-05-20T09:12:07.602Z,3104.00
2019-05-20T09:13:07.537Z,3140.00
2019-05-20T09:14:07.672Z,3020.00
2019-05-20T09:15:08.082Z,2892.00
2019-05-20T09:16:07.570Z,2924.00
2019-05-20T09:17:07.484Z,2968.00
2019-05-20T09:18:07.503Z,2964.00
2019-05-20T09:19:07.562Z,2944.00
2019-05-20T09:20:07.621Z,3008.00
2019-05-20T09:21:07.561Z,3072.00
2019-05-20T09:22:07.534Z,3108.00
2019-05-20T09:23:07.437Z,3180.00
2019-05-20T09:24:08.098Z,3308.00
2019-05-20T09:25:07.643Z,3320.00
2019-05-20T09:26:07.557Z,3500.00
2019-05-20T09:27:07.869Z,3544.00
2019-05-20T09:28:07.364Z,3620.00
2019-05-20T09:29:11.089Z,3588.00
2019-05-20T09:30:07.397Z,3900.00
2019-05-20T09:31:07.673Z,4128.00
2019-05-20T09:32:07.343Z,4144.00
2019-05-20T09:33:07.743Z,4144.00
2019-05-20T09:34:07.440Z,4284.00
2019-05-20T09:35:07.333Z,4296.00
2019-05-20T09:36:07.286Z,4164.00
2019-05-20T09:37:07.900Z,4056.00
2019-05-20T09:38:19.398Z,3900.00
2019-05-20T09:39:08.770Z,3836.00
2019-05-20T09:40:07.663Z,3668.00
2019-05-20T09:41:07.338Z,3596.00
2019-05-20T09:42:07.263Z,3576.00
2019-05-20T09:43:07.203Z,3496.00
2019-05-20T09:44:07.243Z,3556.00
2019-05-20T09:45:07.176Z,3608.00
2019-05-20T09:46:08.407Z,3524.00
2019-05-20T09:47:07.235Z,3456.00
2019-05-20T09:48:07.188Z,3496.00
2019-05-20T09:49:07.325Z,3520.00
2019-05-20T09:50:07.197Z,3492.00
2019-05-20T09:51:07.208Z,3384.00
2019-05-20T09:52:07.382Z,3368.00
2019-05-20T09:53:07.784Z,3268.00
2019-05-20T09:54:07.159Z,3184.00
2019-05-20T09:55:07.089Z,3248.00
2019-05-20T09:56:07.092Z,3232.00
2019-05-20T09:57:07.089Z,3164.00
2019-05-20T09:58:07.033Z,3044.00
2019-05-20T09:59:07.014Z,2952.00
2019-05-20T10:00:07.811Z,3044.00
2019-05-20T10:01:07.094Z,3288.00
2019-05-20T10:02:07.084Z,3336.00
2019-05-20T10:03:07.801Z,3212.00
2019-05-20T10:04:06.963Z,3068.00
2019-05-20T10:05:07.459Z,2972.00
2019-05-20T10:06:06.949Z,2960.00
2019-05-20T10:07:07.018Z,3200.00
2019-05-20T10:08:06.963Z,3368.00
2019-05-20T10:09:07.107Z,3224.00
2019-05-20T10:10:06.976Z,3060.00
2019-05-20T10:11:06.960Z,2972.00
2019-05-20T10:12:08.474Z,2868.00
2019-05-20T10:13:07.390Z,2740.00
2019-05-20T10:14:06.971Z,2700.00
2019-05-20T10:15:06.885Z,2788.00
2019-05-20T10:16:06.960Z,2820.00
2019-05-20T10:17:06.988Z,2860.00
2019-05-20T10:18:06.899Z,2964.00
2019-05-20T10:19:06.831Z,3064.00
2019-05-20T10:20:06.784Z,3272.00
2019-05-20T10:21:06.820Z,3360.00
2019-05-20T10:22:06.785Z,3372.00
2019-05-20T10:23:06.927Z,3516.00
2019-05-20T10:24:06.889Z,3452.00
2019-05-20T10:25:06.790Z,3592.00
2019-05-20T10:26:06.720Z,3716.00
2019-05-20T10:27:06.745Z,3816.00
2019-05-20T10:28:06.717Z,4176.00
2019-05-20T10:29:06.734Z,4280.00
2019-05-20T10:30:06.689Z,4468.00
2019-05-20T10:31:06.804Z,4500.00
2019-05-20T10:32:06.745Z,4488.00
2019-05-20T10:33:09.528Z,4612.00
2019-05-20T10:34:06.893Z,4556.00
2019-05-20T10:35:08.162Z,4496.00
2019-05-20T10:36:06.630Z,4532.00
2019-05-20T10:37:06.620Z,4672.00
2019-05-20T10:38:06.582Z,4512.00
2019-05-20T10:39:07.898Z,4568.00
2019-05-20T10:40:06.550Z,4852.00
2019-05-20T10:41:06.649Z,5024.00
2019-05-20T10:42:06.573Z,5172.00
2019-05-20T10:43:08.358Z,5396.00
2019-05-20T10:44:06.607Z,5748.00
2019-05-20T10:45:06.509Z,6156.00
2019-05-20T10:46:06.613Z,6540.00
2019-05-20T10:47:06.483Z,6932.00
2019-05-20T10:48:08.874Z,6804.00
2019-05-20T10:49:06.454Z,6488.00
2019-05-20T10:50:06.518Z,6380.00
2019-05-20T10:51:10.231Z,5924.00
2019-05-20T10:52:06.414Z,5776.00
2019-05-20T10:53:06.488Z,5736.00
2019-05-20T10:54:06.466Z,5308.00
2019-05-20T10:55:06.887Z,5108.00
2019-05-20T10:56:07.815Z,4828.00
2019-05-20T10:57:06.484Z,4804.00
2019-05-20T10:58:06.415Z,4924.00
2019-05-20T10:59:11.912Z,5104.00
2019-05-20T11:00:07.454Z,4460.00
2019-05-20T11:01:06.751Z,4012.00
2019-05-20T11:02:06.355Z,3920.00
2019-05-20T11:03:06.611Z,4272.00
2019-05-20T11:04:06.462Z,4088.00
2019-05-20T11:05:06.313Z,4124.00
2019-05-20T11:06:06.372Z,4120.00
2019-05-20T11:07:06.276Z,3984.00
2019-05-20T11:08:06.418Z,4132.00
2019-05-20T11:09:13.998Z,4160.00
2019-05-20T11:10:07.344Z,4076.00
2019-05-20T11:11:06.257Z,4060.00
2019-05-20T11:12:06.238Z,4196.00
2019-05-20T11:13:06.249Z,4268.00
2019-05-20T11:14:06.281Z,4248.00
2019-05-20T11:15:06.349Z,4000.00
2019-05-20T11:16:06.150Z,3792.00
2019-05-20T11:17:06.269Z,3796.00
2019-05-20T11:18:06.184Z,4012.00
2019-05-20T11:19:06.116Z,4108.00
2019-05-20T11:20:06.112Z,4236.00
2019-05-20T11:21:06.254Z,4224.00
2019-05-20T11:22:06.169Z,4392.00
2019-05-20T11:23:06.104Z,4396.00
2019-05-20T11:24:06.080Z,4496.00
2019-05-20T11:25:06.069Z,4740.00
2019-05-20T11:26:06.039Z,4888.00
2019-05-20T11:27:06.089Z,4840.00
2019-05-20T11:28:06.087Z,4656.00
2019-05-20T11:29:06.195Z,4732.00
2019-05-20T11:30:05.995Z,4688.00
2019-05-20T11:31:06.106Z,4556.00
2019-05-20T11:32:06.080Z,4536.00
2019-05-20T11:33:05.959Z,4676.00
2019-05-20T11:34:06.424Z,4584.00
2019-05-20T11:35:05.983Z,4768.00
2019-05-20T11:36:06.221Z,4904.00
2019-05-20T11:37:06.002Z,5256.00
2019-05-20T11:38:05.930Z,5300.00
2019-05-20T11:39:07.301Z,5384.00
2019-05-20T11:40:06.394Z,5392.00
2019-05-20T11:41:05.975Z,5140.00
2019-05-20T11:42:05.935Z,4852.00
2019-05-20T11:43:05.862Z,4576.00
2019-05-20T11:44:05.839Z,4660.00
2019-05-20T11:45:05.821Z,4868.00
2019-05-20T11:46:05.819Z,5048.00
2019-05-20T11:47:05.805Z,5328.00
2019-05-20T11:48:05.831Z,5312.00
2019-05-20T11:49:05.782Z,5580.00
2019-05-20T11:50:05.766Z,5948.00
2019-05-20T11:51:05.808Z,6100.00
2019-05-20T11:52:05.743Z,6240.00
2019-05-20T11:53:05.757Z,6444.00
2019-05-20T11:54:05.836Z,6492.00
2019-05-20T11:55:05.727Z,6444.00
2019-05-20T11:56:05.704Z,6592.00
2019-05-20T11:57:05.744Z,7156.00
2019-05-20T11:58:15.392Z,7692.00
2019-05-20T11:59:06.692Z,7848.00
2019-05-20T12:00:05.669Z,7420.00
2019-05-20T12:01:05.679Z,6600.00
2019-05-20T12:02:05.805Z,6028.00
2019-05-20T12:03:05.642Z,6244.00
2019-05-20T12:04:05.649Z,5924.00
2019-05-20T12:05:05.620Z,5820.00
2019-05-20T12:06:05.987Z,5824.00
2019-05-20T12:07:08.459Z,5728.00
2019-05-20T12:08:05.624Z,5680.00
2019-05-20T12:09:05.578Z,5480.00
2019-05-20T12:10:05.561Z,5116.00
2019-05-20T12:11:05.622Z,5192.00
2019-05-20T12:12:05.523Z,5332.00
2019-05-20T12:13:05.572Z,5672.00
2019-05-20T12:14:05.503Z,5388.00
2019-05-20T12:15:06.362Z,5496.00
2019-05-20T12:16:05.474Z,5244.00
2019-05-20T12:17:05.544Z,4804.00
2019-05-20T12:18:05.444Z,4732.00
2019-05-20T12:19:05.476Z,4668.00
2019-05-20T12:20:06.771Z,4952.00
2019-05-20T12:21:05.411Z,4728.00
2019-05-20T12:22:05.535Z,4224.00
2019-05-20T12:23:05.499Z,3948.00
2019-05-20T12:24:05.389Z,4028.00
2019-05-20T12:25:05.418Z,4592.00
2019-05-20T12:26:05.481Z,4696.00
2019-05-20T12:27:05.414Z,4624.00
2019-05-20T12:28:05.338Z,4688.00
2019-05-20T12:29:05.373Z,4976.00